createdAt,value
2018-05-03T00:02:22.735Z,93402.42
2018-05-03T00:04:50.069Z,93397.14
2018-05-03T00:07:17.412Z,93405.63
2018-05-03T00:09:45.741Z,93397.27
2018-05-03T00:12:13.080Z,93396.86
2018-05-03T00:14:40.407Z,93387.67
2018-05-03T00:17:11.171Z,93387.92
2018-05-03T00:19:38.445Z,93388.33
2018-05-03T00:22:05.598Z,93387.73
2018-05-03T00:24:32.912Z,93392.57
2018-05-03T00:27:03.648Z,93395.19
2018-05-03T00:29:30.958Z,93400.47
2018-05-03T00:31:58.152Z,93401.48
2018-05-03T00:34:25.320Z,93401.08
2018-05-03T00:36:52.643Z,93403.70
2018-05-03T00:39:19.972Z,93397.84
2018-05-03T00:41:47.301Z,93398.65
2018-05-03T00:44:14.656Z,93392.81
2018-05-03T00:46:41.980Z,93406.14
2018-05-03T00:49:09.449Z,93398.59
2018-05-03T00:51:36.806Z,93394.25
2018-05-03T00:54:04.232Z,93396.47
2018-05-03T00:56:31.588Z,93391.80
2018-05-03T00:58:58.920Z,93394.25
2018-05-03T01:01:26.128Z,93384.87
2018-05-03T01:03:55.709Z,93376.07
2018-05-03T01:06:23.028Z,93373.56
2018-05-03T01:08:51.260Z,93374.27
2018-05-03T01:11:18.524Z,93376.90
2018-05-03T01:13:49.263Z,93383.71
2018-05-03T01:16:16.593Z,93394.89
2018-05-03T01:18:47.338Z,93400.08
2018-05-03T01:21:14.657Z,93391.64
2018-05-03T01:23:45.399Z,93388.03
2018-05-03T01:26:12.702Z,93382.81
2018-05-03T01:28:40.147Z,93387.64
2018-05-03T01:31:10.924Z,93391.75
2018-05-03T01:33:38.253Z,93400.36
2018-05-03T01:36:18.580Z,93403.80
2018-05-03T01:38:49.315Z,93401.59
2018-05-03T01:41:17.414Z,93406.03
2018-05-03T01:43:48.143Z,93401.69
2018-05-03T01:46:16.265Z,93400.55
2018-05-03T01:48:47.075Z,93402.81
2018-05-03T01:51:14.408Z,93401.39
2018-05-03T01:53:45.119Z,93398.75
2018-05-03T01:56:12.454Z,93391.19
2018-05-03T01:58:43.209Z,93388.48
2018-05-03T02:01:10.509Z,93394.92
2018-05-03T02:03:37.845Z,93403.20
2018-05-03T02:06:07.606Z,93405.92
2018-05-03T02:08:35.044Z,93415.61
2018-05-03T02:11:05.056Z,93410.47
2018-05-03T02:13:32.415Z,93404.20
2018-05-03T02:16:02.896Z,93405.43
2018-05-03T02:18:30.217Z,93404.62
2018-05-03T02:21:00.102Z,93401.39
2018-05-03T02:23:27.404Z,93401.09
2018-05-03T02:25:58.180Z,93396.16
2018-05-03T02:28:25.468Z,93391.22
2018-05-03T02:30:56.208Z,93389.42
2018-05-03T02:33:23.513Z,93385.66
2018-05-03T02:35:54.291Z,93384.84
2018-05-03T02:38:21.594Z,93386.27
2018-05-03T02:40:51.609Z,93393.95
2018-05-03T02:43:18.898Z,93395.36
2018-05-03T02:45:49.636Z,93387.28
2018-05-03T02:48:16.973Z,93396.38
2018-05-03T02:50:44.153Z,93395.46
2018-05-03T02:53:11.640Z,93394.95
2018-05-03T02:55:39.372Z,93401.03
2018-05-03T02:58:25.176Z,93400.61
2018-05-03T03:01:17.183Z,93401.83
2018-05-03T03:04:09.114Z,93401.31
2018-05-03T03:06:54.774Z,93398.80
2018-05-03T03:09:46.622Z,93406.07
2018-05-03T03:26:57.439Z,93397.20
2018-05-03T03:29:40.530Z,93401.53
2018-05-03T03:32:26.253Z,93398.19
2018-05-03T03:35:03.295Z,93401.04
2018-05-03T03:37:49.144Z,93407.88
2018-05-03T03:40:26.223Z,93418.98
2018-05-03T03:56:25.649Z,93418.58
2018-05-03T03:58:52.934Z,93426.35
2018-05-03T04:01:20.292Z,93423.31
2018-05-03T04:03:48.364Z,93425.84
2018-05-03T04:06:16.437Z,93429.27
2018-05-03T04:08:44.523Z,93422.11
2018-05-03T04:11:11.837Z,93422.02
2018-05-03T04:13:39.153Z,93424.04
2018-05-03T04:16:06.467Z,93416.86
2018-05-03T04:18:43.343Z,93422.63
2018-05-03T04:21:29.207Z,93423.02
2018-05-03T04:24:06.106Z,93419.09
2018-05-03T04:26:33.421Z,93415.07
2018-05-03T04:29:04.155Z,93419.98
2018-05-03T04:31:31.461Z,93423.83
2018-05-03T04:34:02.174Z,93424.33
2018-05-03T04:36:29.517Z,93421.51
2018-05-03T04:38:57.891Z,93423.31
2018-05-03T04:41:25.506Z,93420.61
2018-05-03T04:43:55.242Z,93430.28
2018-05-03T04:46:22.581Z,93429.78
2018-05-03T04:48:52.294Z,93435.71
2018-05-03T04:51:36.018Z,93432.91
2018-05-03T04:54:06.145Z,93435.92
2018-05-03T04:56:33.442Z,93442.37
2018-05-03T04:59:05.333Z,93439.15
2018-05-03T05:01:32.681Z,93432.70
2018-05-03T05:04:02.514Z,93443.19
2018-05-03T05:06:29.805Z,93437.55
2018-05-03T05:08:59.727Z,93436.95
2018-05-03T05:11:27.819Z,93443.00
2018-05-03T05:14:01.159Z,93450.25
2018-05-03T05:16:28.481Z,93442.30
2018-05-03T05:18:58.391Z,93445.82
2018-05-03T05:21:26.452Z,93458.12
2018-05-03T05:23:56.367Z,93466.98
2018-05-03T05:26:23.713Z,93467.88
2018-05-03T05:28:56.304Z,93469.41
2018-05-03T05:31:23.712Z,93475.95
2018-05-03T05:33:54.282Z,93474.45
2018-05-03T05:36:21.612Z,93472.44
2018-05-03T05:38:51.198Z,93481.50
2018-05-03T05:41:18.460Z,93483.54
2018-05-03T05:43:50.208Z,93494.30
2018-05-03T05:46:17.554Z,93503.50
2018-05-03T05:48:47.560Z,93507.32
2018-05-03T05:51:14.940Z,93503.29
2018-05-03T05:53:44.774Z,93499.47
2018-05-03T05:56:12.096Z,93509.86
2018-05-03T05:58:41.943Z,93506.75
2018-05-03T06:01:09.294Z,93512.17
2018-05-03T06:03:42.619Z,93517.63
2018-05-03T06:06:09.965Z,93513.61
2018-05-03T06:08:39.829Z,93510.17
2018-05-03T06:11:07.136Z,93508.16
2018-05-03T06:13:39.391Z,93511.97
2018-05-03T06:16:07.444Z,93508.63
2018-05-03T06:18:39.099Z,93511.77
2018-05-03T06:21:06.444Z,93503.81
2018-05-03T06:23:36.398Z,93500.48
2018-05-03T06:26:03.804Z,93513.61
2018-05-03T06:28:34.135Z,93515.92
2018-05-03T06:31:01.460Z,93520.66
2018-05-03T06:33:31.396Z,93515.41
2018-05-03T06:35:58.777Z,93526.39
2018-05-03T06:38:28.523Z,93532.27
2018-05-03T06:40:55.837Z,93529.95
2018-05-03T06:43:25.285Z,93534.19
2018-05-03T06:45:52.573Z,93535.51
2018-05-03T06:48:22.496Z,93537.22
2018-05-03T06:50:49.790Z,93537.81
2018-05-03T06:53:19.512Z,93543.48
2018-05-03T06:55:46.844Z,93546.42
2018-05-03T06:58:15.213Z,93544.68
2018-05-03T07:00:43.987Z,93550.51
2018-05-03T07:03:14.733Z,93559.38
2018-05-03T07:05:42.069Z,93557.69
2018-05-03T07:08:13.504Z,93560.23
2018-05-03T07:10:44.272Z,93556.07
2018-05-03T07:13:11.585Z,93558.81
2018-05-03T07:15:41.610Z,93559.52
2018-05-03T07:18:10.307Z,93557.00
2018-05-03T07:20:38.759Z,93560.84
2018-05-03T07:23:06.045Z,93554.55
2018-05-03T07:25:36.010Z,93553.17
2018-05-03T07:28:03.402Z,93556.80
2018-05-03T07:30:33.292Z,93559.23
2018-05-03T07:33:00.560Z,93564.56
2018-05-03T07:35:30.435Z,93564.08
2018-05-03T07:37:58.877Z,93565.56
2018-05-03T07:40:26.180Z,93560.44
2018-05-03T07:42:57.807Z,93558.92
2018-05-03T07:45:27.325Z,93562.77
2018-05-03T07:47:54.640Z,93553.97
2018-05-03T07:50:24.760Z,93552.17
2018-05-03T07:52:52.113Z,93557.21
2018-05-03T07:55:21.932Z,93562.66
2018-05-03T07:57:50.475Z,93561.45
2018-05-03T08:00:17.752Z,93561.45
2018-05-03T08:02:46.139Z,93561.84
2018-05-03T08:05:13.461Z,93566.08
2018-05-03T08:07:43.186Z,93562.66
2018-05-03T08:10:11.606Z,93568.59
2018-05-03T08:12:38.912Z,93574.55
2018-05-03T08:15:08.795Z,93579.20
2018-05-03T08:17:37.241Z,93574.67
2018-05-03T08:20:04.637Z,93574.95
2018-05-03T08:22:34.871Z,93570.10
2018-05-03T08:25:04.386Z,93576.16
2018-05-03T08:27:31.713Z,93579.20
2018-05-03T08:30:01.299Z,93580.99
2018-05-03T08:32:29.772Z,93590.50
2018-05-03T08:34:57.072Z,93584.04
2018-05-03T08:37:26.908Z,93593.23
2018-05-03T08:39:55.322Z,93598.38
2018-05-03T08:42:23.934Z,93593.31
2018-05-03T08:44:51.259Z,93594.70
2018-05-03T08:47:20.650Z,93592.78
2018-05-03T08:49:49.027Z,93593.49
2018-05-03T08:52:16.340Z,93592.67
2018-05-03T08:54:46.256Z,93602.41
2018-05-03T08:57:14.744Z,93609.06
2018-05-03T08:59:43.222Z,93607.33
2018-05-03T09:02:11.803Z,93609.14
2018-05-03T09:04:41.210Z,93608.23
2018-05-03T09:07:10.763Z,93614.52
2018-05-03T09:09:39.243Z,93606.20
2018-05-03T09:12:08.726Z,93610.84
2018-05-03T09:14:37.132Z,93609.92
2018-05-03T09:17:06.227Z,93611.16
2018-05-03T09:19:37.176Z,93618.82
2018-05-03T09:22:05.578Z,93620.44
2018-05-03T09:24:33.936Z,93636.02
2018-05-03T09:27:02.334Z,93629.56
2018-05-03T09:29:32.022Z,93628.75
2018-05-03T09:32:02.854Z,93628.02
2018-05-03T09:34:32.316Z,93629.38
2018-05-03T09:37:01.778Z,93630.73
2018-05-03T09:39:31.193Z,93621.55
2018-05-03T09:42:01.030Z,93625.06
2018-05-03T09:44:29.422Z,93621.29
2018-05-03T09:46:57.865Z,93635.33
2018-05-03T09:49:26.001Z,93633.78
2018-05-03T09:51:55.868Z,93636.25
2018-05-03T09:54:24.307Z,93641.17
2018-05-03T09:56:52.702Z,93645.33
2018-05-03T09:59:21.188Z,93655.65
2018-05-03T10:01:49.671Z,93656.69
2018-05-03T10:04:18.095Z,93650.70
2018-05-03T10:06:46.507Z,93654.80
2018-05-03T10:09:14.987Z,93650.79
2018-05-03T10:11:43.485Z,93642.97
2018-05-03T10:14:12.951Z,93643.50
2018-05-03T10:16:42.855Z,93645.87
2018-05-03T10:19:11.241Z,93652.81
2018-05-03T10:21:39.629Z,93652.81
2018-05-03T10:24:09.331Z,93656.59
2018-05-03T10:26:37.747Z,93655.38
2018-05-03T10:29:07.198Z,93654.97
2018-05-03T10:31:36.660Z,93652.37
2018-05-03T10:34:06.104Z,93646.84
2018-05-03T10:36:35.764Z,93638.27
2018-05-03T10:39:05.180Z,93644.14
2018-05-03T10:41:33.602Z,93640.76
2018-05-03T10:44:02.055Z,93640.71
2018-05-03T10:46:30.126Z,93640.77
2018-05-03T10:48:59.849Z,93640.94
2018-05-03T10:51:28.282Z,93639.97
2018-05-03T10:53:55.614Z,93643.69
2018-05-03T10:56:25.120Z,93647.23
2018-05-03T10:58:53.538Z,93643.06
2018-05-03T11:01:24.339Z,93630.61
2018-05-03T11:03:51.653Z,93632.80
2018-05-03T11:06:21.155Z,93629.80
2018-05-03T11:08:49.840Z,93627.17
2018-05-03T11:11:18.286Z,93632.03
2018-05-03T11:13:46.686Z,93628.89
2018-05-03T11:16:15.159Z,93627.00
2018-05-03T11:18:43.604Z,93632.22
2018-05-03T11:21:11.986Z,93621.37
2018-05-03T11:23:40.435Z,93628.31
2018-05-03T11:26:07.883Z,93638.45
2018-05-03T11:28:37.718Z,93638.63
2018-05-03T11:31:06.119Z,93627.20
2018-05-03T11:33:33.434Z,93633.86
2018-05-03T11:36:02.854Z,93631.22
2018-05-03T11:38:30.357Z,93628.74
2018-05-03T11:40:59.804Z,93626.64
2018-05-03T11:43:28.232Z,93624.11
2018-05-03T11:45:55.569Z,93627.02
2018-05-03T11:48:25.050Z,93625.73
2018-05-03T11:50:53.423Z,93627.69
2018-05-03T11:53:20.720Z,93622.33
2018-05-03T11:55:50.460Z,93618.98
2018-05-03T11:58:18.914Z,93619.36
2018-05-03T12:00:46.245Z,93624.83
2018-05-03T12:03:15.984Z,93619.59
2018-05-03T12:05:44.448Z,93617.80
2018-05-03T12:08:11.822Z,93607.76
2018-05-03T12:10:40.986Z,93609.36
2018-05-03T12:13:09.821Z,93603.34
2018-05-03T12:15:37.128Z,93601.23
2018-05-03T12:18:05.828Z,93590.95
2018-05-03T12:20:33.166Z,93599.66
2018-05-03T12:23:02.627Z,93602.48
2018-05-03T12:25:31.136Z,93612.88
2018-05-03T12:27:58.468Z,93619.61
2018-05-03T12:30:28.269Z,93615.98
2018-05-03T12:32:55.587Z,93610.22
2018-05-03T12:35:22.919Z,93611.38
2018-05-03T12:37:51.331Z,93613.87
2018-05-03T12:40:18.695Z,93612.08
2018-05-03T12:42:49.418Z,93606.91
2018-05-03T12:45:16.720Z,93604.28
2018-05-03T12:47:45.222Z,93613.94
2018-05-03T12:50:12.564Z,93609.36
2018-05-03T12:52:39.957Z,93609.44
2018-05-03T12:55:08.279Z,93590.81
2018-05-03T12:57:36.340Z,93597.35
2018-05-03T13:00:05.324Z,93606.65
2018-05-03T13:02:33.410Z,93598.31
2018-05-03T13:05:04.539Z,93611.78
2018-05-03T13:07:31.889Z,93609.85
2018-05-03T13:10:00.575Z,93612.60
2018-05-03T13:12:28.693Z,93610.59
2018-05-03T13:14:58.132Z,93605.80
2018-05-03T13:17:25.536Z,93608.55
2018-05-03T13:19:54.731Z,93600.18
2018-05-03T13:22:22.803Z,93609.55
2018-05-03T13:24:53.564Z,93600.17
2018-05-03T13:27:20.917Z,93597.48
2018-05-03T13:29:48.210Z,93602.44
2018-05-03T13:32:15.554Z,93600.91
2018-05-03T13:34:42.860Z,93598.97
2018-05-03T13:37:10.177Z,93596.48
2018-05-03T13:39:38.261Z,93590.37
2018-05-03T13:42:06.325Z,93587.18
2018-05-03T13:44:33.505Z,93595.30
2018-05-03T13:47:00.817Z,93598.86
2018-05-03T13:49:28.128Z,93591.95
2018-05-03T13:51:55.515Z,93599.89
2018-05-03T13:54:22.829Z,93598.38
2018-05-03T13:56:50.165Z,93602.12
2018-05-03T13:59:17.574Z,93602.53
2018-05-03T14:01:44.914Z,93604.48
2018-05-03T14:04:12.249Z,93609.44
2018-05-03T14:06:39.609Z,93604.50
2018-05-03T14:09:06.918Z,93609.32
2018-05-03T14:11:34.241Z,93604.84
2018-05-03T14:14:01.539Z,93601.57
2018-05-03T14:16:28.905Z,93617.28
2018-05-03T14:18:56.277Z,93613.73
2018-05-03T14:21:23.564Z,93603.81
2018-05-03T14:23:50.927Z,93603.59
2018-05-03T14:26:18.233Z,93607.30
2018-05-03T14:28:45.579Z,93600.73
2018-05-03T14:31:12.959Z,93604.27
2018-05-03T14:33:40.313Z,93605.98
2018-05-03T14:36:10.720Z,93609.81
2018-05-03T14:38:38.153Z,93602.12
2018-05-03T14:41:06.229Z,93611.31
2018-05-03T14:43:33.561Z,93618.95
2018-05-03T14:46:00.967Z,93615.50
2018-05-03T14:48:28.303Z,93610.56
2018-05-03T14:50:55.612Z,93601.30
2018-05-03T14:53:22.945Z,93618.29
2018-05-03T14:55:50.289Z,93618.92
2018-05-03T14:58:17.716Z,93623.69
2018-05-03T15:00:45.083Z,93621.56
2018-05-03T15:03:12.432Z,93620.68
2018-05-03T15:05:39.729Z,93616.89
2018-05-03T15:08:07.077Z,93617.39
2018-05-03T15:10:34.406Z,93611.92
2018-05-03T15:13:01.805Z,93610.86
2018-05-03T15:15:29.144Z,93608.61
2018-05-03T15:17:56.472Z,93608.55
2018-05-03T15:20:23.801Z,93609.28
2018-05-03T15:22:51.117Z,93598.47
2018-05-03T15:25:19.539Z,93616.31
2018-05-03T15:27:46.888Z,93606.13
2018-05-03T15:30:14.218Z,93607.85
2018-05-03T15:32:42.294Z,93609.03
2018-05-03T15:35:10.403Z,93603.78
2018-05-03T15:37:38.737Z,93603.73
2018-05-03T15:40:06.161Z,93607.94
2018-05-03T15:42:34.301Z,93611.20
2018-05-03T15:45:01.681Z,93612.41
2018-05-03T15:47:29.051Z,93610.27
2018-05-03T15:49:56.418Z,93611.80
2018-05-03T15:52:23.669Z,93609.50
2018-05-03T15:54:51.024Z,93610.34
2018-05-03T15:57:18.345Z,93610.94
2018-05-03T15:59:45.772Z,93608.19
2018-05-03T16:02:13.212Z,93602.22
2018-05-03T16:04:41.310Z,93612.33
2018-05-03T16:07:08.705Z,93601.88
2018-05-03T16:09:36.013Z,93602.64
2018-05-03T16:12:03.385Z,93615.64
2018-05-03T16:14:30.690Z,93620.02
2018-05-03T16:16:58.804Z,93608.89
2018-05-03T16:19:26.160Z,93608.34
2018-05-03T16:21:56.915Z,93612.08
2018-05-03T16:24:24.301Z,93607.05
2018-05-03T16:26:52.720Z,93603.45
2018-05-03T16:29:20.090Z,93609.77
2018-05-03T16:31:47.425Z,93613.45
2018-05-03T16:34:15.768Z,93603.96
2018-05-03T16:36:43.870Z,93617.59
2018-05-03T16:39:11.195Z,93609.70
2018-05-03T16:41:38.391Z,93617.00
2018-05-03T16:44:05.768Z,93625.41
2018-05-03T16:46:33.109Z,93622.36
2018-05-03T16:49:03.892Z,93621.73
2018-05-03T16:51:31.229Z,93623.47
2018-05-03T16:53:59.744Z,93630.19
2018-05-03T16:56:27.056Z,93627.37
2018-05-03T16:58:54.485Z,93628.41
2018-05-03T17:01:21.855Z,93636.90
2018-05-03T17:03:49.265Z,93625.41
2018-05-03T17:06:17.468Z,93622.98
2018-05-03T17:20:32.668Z,93632.56
2018-05-03T17:23:03.478Z,93631.57
2018-05-03T17:25:30.797Z,93633.59
2018-05-03T17:27:58.201Z,93640.03
2018-05-03T17:30:26.216Z,93638.43
2018-05-03T17:32:53.615Z,93642.25
2018-05-03T17:35:21.694Z,93644.73
2018-05-03T17:37:49.103Z,93648.98
2018-05-03T17:40:16.793Z,93649.96
2018-05-03T17:42:43.980Z,93651.52
2018-05-03T17:45:12.069Z,93651.34
2018-05-03T17:47:40.525Z,93653.73
2018-05-03T17:50:08.983Z,93658.06
2018-05-03T17:52:36.296Z,93660.84
2018-05-03T17:55:03.639Z,93667.62
2018-05-03T17:57:30.973Z,93660.69
2018-05-03T17:59:59.032Z,93661.58
2018-05-03T18:02:26.383Z,93669.36
2018-05-03T18:04:54.501Z,93678.12
2018-05-03T18:07:21.821Z,93688.83
2018-05-03T18:09:52.943Z,93687.08
2018-05-03T18:12:20.268Z,93681.91
2018-05-03T18:14:47.652Z,93694.33
2018-05-03T18:17:19.419Z,93696.13
2018-05-03T18:19:46.728Z,93699.26
2018-05-03T18:22:14.867Z,93703.66
2018-05-03T18:24:42.250Z,93706.05
2018-05-03T18:27:09.568Z,93706.53
2018-05-03T18:29:36.936Z,93714.13
2018-05-03T18:32:04.321Z,93708.56
2018-05-03T18:34:31.649Z,93711.37
2018-05-03T18:36:59.000Z,93708.60
2018-05-03T18:39:26.505Z,93721.93
2018-05-03T18:41:53.882Z,93719.70
2018-05-03T18:44:21.196Z,93720.48
2018-05-03T18:46:48.540Z,93731.89
2018-05-03T18:49:15.974Z,93733.42
2018-05-03T18:51:43.222Z,93720.23
2018-05-03T18:54:11.355Z,93729.27
2018-05-03T18:56:38.696Z,93731.76
2018-05-03T18:59:06.134Z,93735.67
2018-05-03T19:01:36.909Z,93732.45
2018-05-03T19:04:04.252Z,93734.11
2018-05-03T19:06:34.816Z,93735.52
2018-05-03T19:09:02.288Z,93740.64
2018-05-03T19:11:29.683Z,93741.81
2018-05-03T19:13:56.985Z,93743.02
2018-05-03T19:16:24.423Z,93747.18
2018-05-03T19:18:52.513Z,93751.59
2018-05-03T19:21:19.841Z,93749.16
2018-05-03T19:23:47.992Z,93747.59
2018-05-03T19:26:15.405Z,93757.08
2018-05-03T19:28:42.723Z,93761.91
2018-05-03T19:31:13.480Z,93747.22
2018-05-03T19:33:40.853Z,93763.61
2018-05-03T19:36:08.202Z,93761.09
2018-05-03T19:38:35.593Z,93768.03
2018-05-03T19:41:03.016Z,93768.34
2018-05-03T19:43:30.389Z,93765.80
2018-05-03T19:45:57.816Z,93761.48
2018-05-03T19:48:25.148Z,93769.31
2018-05-03T19:50:53.257Z,93766.87
2018-05-03T19:53:20.600Z,93772.70
2018-05-03T19:55:47.975Z,93774.02
2018-05-03T19:58:15.374Z,93770.88
2018-05-03T20:00:42.724Z,93770.38
2018-05-03T20:03:10.763Z,93770.38
2018-05-03T20:05:38.119Z,93765.55
2018-05-03T20:08:05.465Z,93768.34
2018-05-03T20:10:32.814Z,93773.66
2018-05-03T20:13:00.158Z,93768.80
2018-05-03T20:15:27.569Z,93766.78
2018-05-03T20:17:55.465Z,93765.24
2018-05-03T20:20:22.873Z,93771.94
2018-05-03T20:22:50.321Z,93770.48
2018-05-03T20:25:17.741Z,93773.31
2018-05-03T20:27:45.137Z,93775.19
2018-05-03T20:30:12.303Z,93770.53
2018-05-03T20:32:39.803Z,93769.00
2018-05-03T20:35:07.096Z,93766.97
2018-05-03T20:37:34.468Z,93770.66
2018-05-03T20:40:01.854Z,93769.80
2018-05-03T20:42:29.382Z,93770.70
2018-05-03T20:44:56.786Z,93766.64
2018-05-03T20:47:24.131Z,93754.63
2018-05-03T20:49:56.979Z,93760.97
2018-05-03T20:52:25.083Z,93760.67
2018-05-03T20:54:56.088Z,93756.55
2018-05-03T20:57:23.404Z,93755.58
2018-05-03T20:59:54.140Z,93761.20
2018-05-03T21:02:21.514Z,93765.67
2018-05-03T21:04:49.912Z,93770.78
2018-05-03T21:07:17.309Z,93768.63
2018-05-03T21:09:48.149Z,93766.63
2018-05-03T21:12:15.537Z,93762.20
2018-05-03T21:14:46.323Z,93773.50
2018-05-03T21:17:14.421Z,93776.58
2018-05-03T21:19:44.228Z,93781.04
2018-05-03T21:22:12.365Z,93770.40
2018-05-03T21:24:45.716Z,93769.05
2018-05-03T21:27:13.089Z,93762.52
2018-05-03T21:29:42.958Z,93758.77
2018-05-03T21:32:11.359Z,93763.00
2018-05-03T21:34:38.762Z,93767.39
2018-05-03T21:37:08.752Z,93767.19
2018-05-03T21:39:36.141Z,93770.53
2018-05-03T21:42:06.119Z,93770.50
2018-05-03T21:44:34.544Z,93766.98
2018-05-03T21:47:01.883Z,93757.05
2018-05-03T21:49:31.774Z,93758.27
2018-05-03T21:52:00.223Z,93766.44
2018-05-03T21:54:27.563Z,93768.28
2018-05-03T21:56:57.921Z,93777.38
2018-05-03T21:59:26.387Z,93771.09
2018-05-03T22:01:53.704Z,93774.14
2018-05-03T22:04:24.542Z,93778.99
2018-05-03T22:06:51.880Z,93779.41
2018-05-03T22:09:22.246Z,93779.20
2018-05-03T22:11:51.915Z,93774.06
2018-05-03T22:14:20.351Z,93776.84
2018-05-03T22:16:48.857Z,93776.86
2018-05-03T22:19:16.209Z,93778.69
2018-05-03T22:21:47.972Z,93782.92
2018-05-03T22:24:16.470Z,93781.95
2018-05-03T22:26:44.930Z,93786.61
2018-05-03T22:29:13.390Z,93789.89
2018-05-03T22:31:41.837Z,93794.92
2018-05-03T22:34:09.121Z,93799.42
2018-05-03T22:36:40.820Z,93803.36
2018-05-03T22:39:09.238Z,93807.36
2018-05-03T22:41:37.662Z,93813.99
2018-05-03T22:44:05.010Z,93810.78
2018-05-03T22:46:36.851Z,93813.13
2018-05-03T22:49:05.219Z,93808.17
2018-05-03T22:51:35.210Z,93814.53
2018-05-03T22:54:03.622Z,93811.81
2018-05-03T22:56:32.059Z,93811.39
2018-05-03T22:58:59.374Z,93815.83
2018-05-03T23:01:29.758Z,93814.84
2018-05-03T23:03:57.420Z,93801.30
2018-05-03T23:06:26.900Z,93802.91
2018-05-03T23:08:54.210Z,93800.09
2018-05-03T23:11:26.347Z,93798.45
2018-05-03T23:13:55.614Z,93804.95
2018-05-03T23:16:24.046Z,93798.47
2018-05-03T23:18:51.388Z,93796.16
2018-05-03T23:21:21.434Z,93802.53
2018-05-03T23:23:50.776Z,93800.62
2018-05-03T23:26:18.210Z,93801.72
2018-05-03T23:28:48.706Z,93796.25
2018-05-03T23:31:17.313Z,93797.80
2018-05-03T23:33:45.761Z,93801.12
2018-05-03T23:36:13.096Z,93793.44
2018-05-03T23:38:43.482Z,93791.61
2018-05-03T23:41:11.928Z,93789.98
2018-05-03T23:43:39.232Z,93778.77
2018-05-03T23:46:08.664Z,93775.33
2018-05-03T23:48:35.980Z,93770.39
2018-05-03T23:51:06.515Z,93772.63
2018-05-03T23:53:34.972Z,93773.92
2018-05-03T23:56:03.459Z,93765.31
2018-05-03T23:58:31.510Z,93771.29
